Time;durP1;ratioP1;P1;durP2;ratioP2;P2;SDS_P1;SDS_P2;PMS_P1;PMS_P2;Temp;Humidity;BMP_temperature;BMP_pressure;BME280_temperature;BME280_humidity;BME280_pressure;Samples;Min_cycle;Max_cycle;Signal;HPM_P1;HPM_P2
2022/06/12 04:01:17;;;;;;;7.20;4.10;;;14.90;99.90;;;;;;5500371;23;20318;-70
2022/06/12 04:03:45;;;;;;;9.27;4.43;;;14.90;99.90;;;;;;4932079;29;20462;-72
2022/06/12 04:06:16;;;;;;;4.47;4.13;;;15.00;99.90;;;;;;4933723;29;20466;-70
2022/06/12 04:08:47;;;;;;;4.87;4.17;;;15.10;99.90;;;;;;4940352;28;20548;-71
2022/06/12 04:11:17;;;;;;;4.33;3.90;;;15.10;99.90;;;;;;4930288;29;20493;-72
2022/06/12 04:13:45;;;;;;;5.10;4.57;;;15.20;99.90;;;;;;4934579;29;20620;-71
2022/06/12 04:16:22;;;;;;;3.70;3.50;;;15.30;99.90;;;;;;4935990;29;20598;-71
2022/06/12 04:18:49;;;;;;;8.50;4.57;;;15.40;99.90;;;;;;4936763;29;20463;-71
2022/06/12 04:21:24;;;;;;;10.00;3.93;;;15.50;99.90;;;;;;4942839;28;20556;-71
2022/06/12 04:24:01;;;;;;;4.57;4.13;;;15.90;99.90;;;;;;4937221;29;20575;-71
2022/06/12 04:26:34;;;;;;;3.93;3.73;;;16.70;99.90;;;;;;4942228;28;20504;-71
2022/06/12 04:29:05;;;;;;;4.10;3.00;;;17.60;99.90;;;;;;4937124;28;20489;-69
2022/06/12 04:31:35;;;;;;;3.87;3.57;;;18.20;99.90;;;;;;4931263;29;20653;-68
2022/06/12 04:34:17;;;;;;;3.77;3.23;;;18.80;99.90;;;;;;4931101;28;20469;-69
2022/06/12 04:36:47;;;;;;;3.50;3.30;;;19.60;99.90;;;;;;4942968;29;20466;-68
2022/06/12 04:39:16;;;;;;;4.70;3.53;;;20.20;99.90;;;;;;4942347;28;20473;-70
2022/06/12 04:41:44;;;;;;;3.43;3.20;;;20.80;99.90;;;;;;4942579;28;20488;-69
2022/06/12 04:44:11;;;;;;;2.90;2.70;;;21.20;99.90;;;;;;4941999;28;20930;-71
2022/06/12 04:46:42;;;;;;;4.63;3.33;;;21.80;99.90;;;;;;4933789;29;21150;-71
2022/06/12 04:49:13;;;;;;;6.03;3.30;;;22.00;99.90;;;;;;4943956;28;20850;-70
2022/06/12 04:51:40;;;;;;;3.10;2.80;;;22.20;99.90;;;;;;4942362;28;21265;-70
2022/06/12 04:54:07;;;;;;;3.70;3.50;;;22.50;99.90;;;;;;4937450;28;20476;-70
2022/06/12 04:56:35;;;;;;;3.33;3.10;;;22.80;99.90;;;;;;4939646;29;20475;-70
2022/06/12 04:59:02;;;;;;;3.57;2.60;;;22.90;99.90;;;;;;4930544;29;20472;-70
2022/06/12 05:01:29;;;;;;;4.30;3.00;;;23.10;99.90;;;;;;4936440;28;20498;-70
2022/06/12 05:03:57;;;;;;;4.60;2.60;;;23.30;99.90;;;;;;4923771;29;21023;-70
2022/06/12 05:06:24;;;;;;;4.87;3.10;;;23.30;99.90;;;;;;4928881;29;20475;-70
2022/06/12 05:08:52;;;;;;;6.00;3.23;;;23.10;99.90;;;;;;4932998;29;20894;-69
2022/06/12 05:11:19;;;;;;;3.10;2.90;;;23.00;99.90;;;;;;4929763;29;20500;-70
2022/06/12 05:13:46;;;;;;;3.00;2.70;;;23.40;99.90;;;;;;4940781;28;20524;-69
2022/06/12 05:16:23;;;;;;;3.83;2.57;;;23.40;99.90;;;;;;4929938;29;20502;-70
2022/06/12 05:18:50;;;;;;;2.97;2.67;;;23.90;99.90;;;;;;4930586;29;20553;-70
2022/06/12 05:21:18;;;;;;;4.57;4.10;;;24.20;99.90;;;;;;4939544;28;20502;-69
2022/06/12 05:23:44;;;;;;;4.10;2.70;;;24.40;99.90;;;;;;4934049;29;20553;-71
2022/06/12 05:26:15;;;;;;;3.40;3.10;;;24.20;99.90;;;;;;4937324;28;20989;-71
2022/06/12 05:28:42;;;;;;;3.83;2.90;;;24.60;99.90;;;;;;4938407;29;20860;-71
2022/06/12 05:31:08;;;;;;;4.30;3.10;;;24.80;99.90;;;;;;4938461;28;20495;-70
2022/06/12 05:33:35;;;;;;;3.00;2.47;;;25.00;99.90;;;;;;4940349;29;20559;-70
2022/06/12 05:36:02;;;;;;;4.83;2.70;;;25.40;99.90;;;;;;4930716;29;20468;-69
2022/06/12 05:38:30;;;;;;;3.00;2.53;;;25.30;99.70;;;;;;4948689;29;20479;-69
2022/06/12 05:40:57;;;;;;;3.00;2.80;;;25.20;99.90;;;;;;4937613;28;20496;-70
2022/06/12 05:43:24;;;;;;;2.80;2.60;;;25.50;99.90;;;;;;4947328;29;20458;-70
2022/06/12 05:45:50;;;;;;;3.17;2.83;;;25.80;99.00;;;;;;4941051;28;20473;-69
2022/06/12 05:48:21;;;;;;;2.67;2.43;;;25.40;98.00;;;;;;4934114;29;20965;-70
2022/06/12 05:50:51;;;;;;;3.03;2.57;;;25.50;98.60;;;;;;4931078;29;20500;-69
2022/06/12 05:53:19;;;;;;;2.60;2.50;;;25.50;97.90;;;;;;4931392;29;20464;-70
2022/06/12 05:55:47;;;;;;;3.70;2.50;;;25.60;97.80;;;;;;4936998;29;20472;-69
2022/06/12 05:58:16;;;;;;;4.70;2.80;;;25.90;97.80;;;;;;4944518;28;20472;-70
2022/06/12 06:00:43;;;;;;;2.70;2.50;;;26.10;96.30;;;;;;4930717;28;20501;-70
2022/06/12 06:03:10;;;;;;;2.60;2.40;;;26.50;96.10;;;;;;4934936;29;20480;-69
2022/06/12 06:05:38;;;;;;;3.87;2.73;;;26.90;95.10;;;;;;4933173;29;20484;-69
2022/06/12 06:08:08;;;;;;;3.97;2.83;;;27.20;94.10;;;;;;4934913;29;20539;-69
2022/06/12 06:10:35;;;;;;;4.00;2.27;;;27.30;93.40;;;;;;4933084;29;20546;-69
2022/06/12 06:13:03;;;;;;;2.37;2.20;;;27.30;93.00;;;;;;4941954;29;20839;-70
2022/06/12 06:15:30;;;;;;;2.87;2.27;;;27.00;93.50;;;;;;4946846;28;20472;-70
2022/06/12 06:17:57;;;;;;;3.00;2.67;;;27.40;93.00;;;;;;4945785;28;20483;-70
2022/06/12 06:20:29;;;;;;;4.47;2.80;;;27.50;92.80;;;;;;4946815;28;20475;-70
2022/06/12 06:22:56;;;;;;;2.50;1.83;;;27.70;91.90;;;;;;4933102;29;20473;-70
2022/06/12 06:25:25;;;;;;;2.53;1.70;;;27.60;91.80;;;;;;4932195;29;20481;-70
2022/06/12 06:27:52;;;;;;;2.77;2.07;;;27.70;91.40;;;;;;4943735;28;20468;-69
2022/06/12 06:30:21;;;;;;;2.90;2.30;;;28.00;90.90;;;;;;4932733;29;20484;-69
2022/06/12 06:32:48;;;;;;;2.80;2.10;;;28.00;90.20;;;;;;4945282;28;20472;-70
2022/06/12 06:35:15;;;;;;;3.93;2.40;;;28.10;90.50;;;;;;4933442;29;20524;-69
2022/06/12 06:37:42;;;;;;;2.27;2.07;;;28.30;90.10;;;;;;4943800;29;20481;-69
2022/06/12 06:40:12;;;;;;;3.40;2.30;;;28.30;86.50;;;;;;4936524;29;20525;-69
2022/06/12 06:42:38;;;;;;;2.83;1.90;;;28.10;88.00;;;;;;4943724;29;20555;-69
2022/06/12 06:47:52;;;;;;;3.00;1.50;;;28.80;86.10;;;;;;4935068;29;20474;-69
2022/06/12 06:50:21;;;;;;;4.37;2.30;;;28.90;84.00;;;;;;4930030;29;20557;-69
2022/06/12 06:52:48;;;;;;;2.10;1.70;;;29.10;84.30;;;;;;4930397;29;20477;-70
2022/06/12 06:55:15;;;;;;;3.67;2.43;;;29.20;81.60;;;;;;4931920;29;20477;-69
2022/06/12 06:57:45;;;;;;;3.93;2.30;;;29.50;81.70;;;;;;4935844;29;20461;-69
2022/06/12 07:00:17;;;;;;;3.80;2.20;;;29.50;79.30;;;;;;4933462;28;20561;-68
2022/06/12 07:02:44;;;;;;;2.90;2.00;;;29.50;79.00;;;;;;4933829;29;21186;-68
2022/06/12 07:05:12;;;;;;;4.17;1.90;;;29.10;79.00;;;;;;4938818;29;20469;-69
2022/06/12 07:07:38;;;;;;;2.93;1.93;;;29.00;78.20;;;;;;4939986;29;20473;-69
2022/06/12 07:10:09;;;;;;;2.80;2.13;;;29.10;78.80;;;;;;4937894;29;20462;-69
2022/06/12 07:12:36;;;;;;;2.70;1.57;;;29.50;78.00;;;;;;4940658;29;20299;-69
2022/06/12 07:15:04;;;;;;;3.60;1.77;;;29.40;77.10;;;;;;4930819;29;20465;-68
2022/06/12 07:17:31;;;;;;;7.20;2.93;;;29.10;77.30;;;;;;4940473;29;20476;-69
2022/06/12 07:19:58;;;;;;;1.63;1.53;;;29.20;76.70;;;;;;4937342;29;20545;-68
2022/06/12 07:22:26;;;;;;;3.13;2.10;;;28.90;77.00;;;;;;4936951;28;20497;-69
2022/06/12 07:24:53;;;;;;;3.10;1.90;;;28.80;78.40;;;;;;4938589;28;20469;-69
2022/06/12 07:27:19;;;;;;;1.93;1.67;;;29.10;78.40;;;;;;4941315;29;20554;-68
2022/06/12 07:29:47;;;;;;;2.93;2.03;;;29.20;76.80;;;;;;4929010;29;20568;-69
2022/06/12 07:32:14;;;;;;;3.47;2.00;;;29.50;76.50;;;;;;4933230;29;20481;-70
2022/06/12 07:34:40;;;;;;;1.93;1.50;;;29.20;76.40;;;;;;4930338;29;20472;-70
2022/06/12 07:37:08;;;;;;;3.83;2.17;;;29.10;76.00;;;;;;4941203;29;20474;-70
2022/06/12 07:39:37;;;;;;;5.90;1.93;;;29.60;77.00;;;;;;4929308;29;20500;-70
2022/06/12 07:42:05;;;;;;;2.97;1.87;;;30.10;75.40;;;;;;4932617;29;20501;-71
2022/06/12 07:44:33;;;;;;;2.87;1.83;;;30.10;72.60;;;;;;4936734;29;21206;-70
2022/06/12 07:47:01;;;;;;;1.50;1.40;;;30.10;73.10;;;;;;4941240;29;20553;-70
2022/06/12 07:49:29;;;;;;;1.80;1.70;;;29.80;72.10;;;;;;4933358;29;20485;-70
2022/06/12 07:51:58;;;;;;;1.93;1.70;;;29.80;72.50;;;;;;4938336;28;20494;-70
2022/06/12 07:54:26;;;;;;;3.10;1.90;;;29.80;72.10;;;;;;4927348;29;21529;-70
2022/06/12 07:56:55;;;;;;;3.17;1.87;;;29.80;72.80;;;;;;4931770;29;20501;-69
2022/06/12 07:59:23;;;;;;;2.30;1.77;;;29.70;72.20;;;;;;4931406;29;20481;-69
2022/06/12 08:01:52;;;;;;;3.30;1.90;;;30.00;70.70;;;;;;4935880;29;20575;-69
2022/06/12 08:04:21;;;;;;;3.97;1.63;;;30.40;69.20;;;;;;4933563;28;20472;-70
2022/06/12 08:06:48;;;;;;;2.50;1.53;;;30.40;68.30;;;;;;4929883;29;20611;-69
2022/06/12 08:09:15;;;;;;;1.27;1.17;;;30.50;65.70;;;;;;4938038;28;21311;-69
2022/06/12 08:11:45;;;;;;;2.30;1.67;;;30.10;66.40;;;;;;4941488;28;20480;-69
2022/06/12 08:14:13;;;;;;;3.50;1.57;;;29.60;66.40;;;;;;4920362;29;20545;-69
2022/06/12 08:16:41;;;;;;;1.93;1.27;;;29.20;68.30;;;;;;4939630;29;20465;-70
2022/06/12 08:20:24;;;;;;;1.40;1.30;;;29.10;69.00;;;;;;4933299;28;20476;-70
2022/06/12 08:21:56;;;;;;;4.00;1.63;;;28.80;67.40;;;;;;4930962;29;20496;-70
2022/06/12 08:24:23;;;;;;;1.40;1.40;;;29.10;67.00;;;;;;4940614;29;20548;-69
2022/06/12 08:26:49;;;;;;;2.30;1.30;;;28.80;67.70;;;;;;4933759;28;20549;-69
2022/06/12 08:29:18;;;;;;;2.70;1.20;;;28.70;67.40;;;;;;4939411;29;20480;-70
2022/06/12 08:31:49;;;;;;;1.47;1.37;;;28.80;67.70;;;;;;4918980;29;20564;-70
2022/06/12 08:34:22;;;;;;;1.70;1.60;;;28.90;67.10;;;;;;4931948;29;20513;-69
2022/06/12 08:36:49;;;;;;;0.93;0.93;;;28.60;66.50;;;;;;4914478;29;20913;-70
2022/06/12 08:39:16;;;;;;;1.60;1.50;;;28.50;65.80;;;;;;4939544;29;20501;-70
2022/06/12 08:41:51;;;;;;;1.70;1.47;;;28.80;65.40;;;;;;4938582;28;20493;-70
2022/06/12 08:44:26;;;;;;;1.00;1.00;;;28.90;66.40;;;;;;4935408;28;20496;-70
2022/06/12 08:46:58;;;;;;;3.07;1.60;;;28.70;65.90;;;;;;4937914;29;20523;-70
2022/06/12 08:49:31;;;;;;;0.83;0.83;;;28.70;67.20;;;;;;4932682;29;20490;-70
2022/06/12 08:52:02;;;;;;;2.73;1.60;;;28.70;66.30;;;;;;4937273;29;20848;-70
2022/06/12 08:54:43;;;;;;;1.47;1.47;;;29.00;66.30;;;;;;4941717;28;20489;-70
2022/06/12 08:57:14;;;;;;;1.10;1.00;;;28.80;66.70;;;;;;4935299;28;20504;-70
2022/06/12 08:59:47;;;;;;;1.10;1.10;;;28.60;63.70;;;;;;4942328;29;20461;-70
2022/06/12 09:02:21;;;;;;;1.20;1.10;;;28.30;66.00;;;;;;4943712;28;20493;-70
2022/06/12 09:04:48;;;;;;;2.43;1.00;;;28.00;64.60;;;;;;4928276;29;20474;-70
2022/06/12 09:07:21;;;;;;;1.27;1.20;;;27.80;64.80;;;;;;4932902;29;20477;-71
2022/06/12 09:09:54;;;;;;;1.80;1.57;;;27.60;65.50;;;;;;4927328;29;20495;-71
2022/06/12 09:12:27;;;;;;;2.20;1.03;;;27.50;65.80;;;;;;4933761;28;20590;-71
2022/06/12 09:15:07;;;;;;;1.37;0.77;;;27.60;64.50;;;;;;4938326;28;20481;-70
2022/06/12 09:17:44;;;;;;;3.50;1.57;;;27.70;65.40;;;;;;4941524;29;20473;-71
2022/06/12 09:20:21;;;;;;;2.43;1.10;;;27.60;66.00;;;;;;4933208;28;20475;-70
2022/06/12 09:22:56;;;;;;;1.90;1.30;;;27.50;66.60;;;;;;4939707;29;20466;-70
2022/06/12 09:25:30;;;;;;;2.77;1.23;;;27.30;66.70;;;;;;4933038;28;20476;-69
2022/06/12 09:28:05;;;;;;;1.90;1.10;;;27.10;67.50;;;;;;4940219;29;20862;-70
2022/06/12 09:30:38;;;;;;;1.60;1.07;;;26.80;67.70;;;;;;4922842;29;20555;-69
2022/06/12 09:33:13;;;;;;;1.17;1.07;;;26.70;65.00;;;;;;4946718;28;20473;-69
2022/06/12 09:35:54;;;;;;;1.50;1.10;;;26.60;66.20;;;;;;4925718;29;20531;-70
2022/06/12 09:38:35;;;;;;;0.60;0.60;;;26.50;65.60;;;;;;4941716;28;20541;-70
2022/06/12 09:41:09;;;;;;;1.87;1.30;;;26.30;65.60;;;;;;4937085;29;20495;-70
2022/06/12 09:43:42;;;;;;;1.50;1.40;;;26.10;65.30;;;;;;4934510;28;20494;-70
2022/06/12 09:46:22;;;;;;;2.20;1.13;;;26.00;66.00;;;;;;4942962;29;20522;-70
2022/06/12 09:49:03;;;;;;;1.53;1.10;;;26.00;66.60;;;;;;4937883;29;20473;-70
2022/06/12 09:51:45;;;;;;;3.20;1.10;;;26.00;67.50;;;;;;4939812;28;20866;-69
2022/06/12 09:54:27;;;;;;;1.60;1.30;;;25.60;66.40;;;;;;4932053;29;20475;-69
2022/06/12 09:57:01;;;;;;;1.63;1.53;;;25.40;66.80;;;;;;4941257;29;20471;-69
2022/06/12 09:59:35;;;;;;;3.37;1.30;;;25.30;68.90;;;;;;4941401;29;20471;-69
2022/06/12 10:02:09;;;;;;;1.17;1.10;;;25.20;67.70;;;;;;4934103;29;20494;-69
2022/06/12 10:04:43;;;;;;;2.83;1.10;;;25.20;68.10;;;;;;4934883;29;20478;-69
2022/06/12 10:07:14;;;;;;;1.00;1.00;;;25.40;67.00;;;;;;4933498;29;20828;-69
2022/06/12 10:09:44;;;;;;;2.07;1.30;;;25.30;67.50;;;;;;4944805;29;20824;-70
2022/06/12 10:12:16;;;;;;;2.97;1.30;;;25.30;67.70;;;;;;4937569;29;20504;-70
2022/06/12 10:14:47;;;;;;;0.77;0.77;;;25.50;67.10;;;;;;4935015;29;20477;-70
2022/06/12 10:17:24;;;;;;;2.70;1.33;;;25.50;67.10;;;;;;4929721;29;20477;-70
2022/06/12 10:19:57;;;;;;;2.53;1.50;;;25.40;68.10;;;;;;4930810;29;20521;-70
2022/06/12 10:22:28;;;;;;;3.30;2.27;;;25.40;68.30;;;;;;4931834;29;20831;-70
2022/06/12 10:24:56;;;;;;;1.80;1.20;;;25.50;68.60;;;;;;4936983;29;20469;-70
2022/06/12 10:27:23;;;;;;;1.10;1.10;;;25.40;66.40;;;;;;4930621;29;20966;-70
2022/06/12 10:29:54;;;;;;;1.17;1.17;;;25.40;68.00;;;;;;4933279;28;20977;-70
2022/06/12 10:32:26;;;;;;;2.20;1.10;;;25.30;69.50;;;;;;4936003;28;20583;-69
2022/06/12 10:34:56;;;;;;;2.20;1.10;;;25.30;68.50;;;;;;4927022;29;20474;-69
2022/06/12 10:37:27;;;;;;;1.37;1.03;;;25.40;68.20;;;;;;4933992;29;20552;-70
2022/06/12 10:40:06;;;;;;;2.83;1.30;;;25.40;68.60;;;;;;4925668;29;20504;-70
2022/06/12 10:42:42;;;;;;;2.77;1.50;;;25.60;68.30;;;;;;4931128;29;20488;-70
2022/06/12 10:45:20;;;;;;;1.23;1.23;;;25.80;69.00;;;;;;4934381;29;20477;-70
2022/06/12 10:47:50;;;;;;;2.97;1.47;;;26.00;69.80;;;;;;4930717;29;20547;-70
2022/06/12 10:50:24;;;;;;;2.47;1.60;;;26.00;68.30;;;;;;4937455;28;20545;-69
2022/06/12 10:53:02;;;;;;;2.57;1.47;;;26.20;68.20;;;;;;4942006;29;20466;-70
2022/06/12 10:55:43;;;;;;;1.30;1.30;;;26.30;68.60;;;;;;4936846;29;20480;-70
2022/06/12 10:58:30;;;;;;;2.57;1.10;;;26.00;68.50;;;;;;4929207;29;20569;-70
2022/06/12 11:01:03;;;;;;;3.00;1.33;;;25.90;66.90;;;;;;4938335;28;20476;-70
2022/06/12 11:03:40;;;;;;;5.87;1.43;;;26.10;68.40;;;;;;4931185;29;21042;-70
2022/06/12 11:06:14;;;;;;;1.90;1.27;;;26.30;67.70;;;;;;4937717;29;20992;-70
2022/06/12 11:09:01;;;;;;;2.90;1.40;;;26.40;67.60;;;;;;4939455;29;20476;-70
2022/06/12 11:11:36;;;;;;;2.93;1.30;;;26.40;65.40;;;;;;4934008;28;20493;-70
2022/06/12 11:14:13;;;;;;;0.90;0.90;;;26.20;63.80;;;;;;4931166;29;20469;-70
2022/06/12 11:16:57;;;;;;;1.50;1.17;;;26.10;63.60;;;;;;4944458;29;20817;-70
2022/06/12 11:19:43;;;;;;;2.03;1.50;;;26.10;64.40;;;;;;4940508;29;20474;-70
2022/06/12 11:22:33;;;;;;;1.40;1.30;;;26.50;65.60;;;;;;4934647;29;20541;-70
2022/06/12 11:25:09;;;;;;;2.57;1.60;;;26.50;66.00;;;;;;4936765;29;20804;-70
2022/06/12 11:27:56;;;;;;;1.57;1.43;;;26.40;65.90;;;;;;4931694;29;20517;-70
2022/06/12 11:30:39;;;;;;;1.00;1.00;;;26.20;67.80;;;;;;4935849;29;20541;-70
2022/06/12 11:33:25;;;;;;;1.87;1.20;;;26.10;67.70;;;;;;4935933;29;21061;-70
2022/06/12 11:36:01;;;;;;;1.27;1.17;;;26.10;68.00;;;;;;4917855;29;20517;-70
2022/06/12 11:38:54;;;;;;;1.60;1.50;;;26.30;66.90;;;;;;4942331;29;20541;-70
2022/06/12 11:41:34;;;;;;;1.20;1.00;;;26.20;65.10;;;;;;4932713;28;20651;-70
2022/06/12 11:44:12;;;;;;;2.73;1.60;;;26.00;65.40;;;;;;4931283;29;20564;-70
2022/06/12 11:46:46;;;;;;;1.90;1.30;;;26.00;65.00;;;;;;4936158;29;20468;-71
2022/06/12 11:49:33;;;;;;;1.63;1.57;;;26.10;63.30;;;;;;4936531;29;20572;-71
2022/06/12 11:52:21;;;;;;;3.40;1.40;;;26.20;63.40;;;;;;4932546;29;20510;-70
2022/06/12 11:55:02;;;;;;;2.87;1.20;;;26.00;63.80;;;;;;4932252;29;20462;-71
2022/06/12 11:57:34;;;;;;;2.43;1.73;;;25.90;65.40;;;;;;4932587;29;20948;-70
2022/06/12 12:00:09;;;;;;;1.27;1.27;;;25.60;66.40;;;;;;4930387;29;20478;-70
2022/06/12 12:02:51;;;;;;;1.60;1.50;;;25.50;66.70;;;;;;4932417;29;20501;-70
2022/06/12 12:05:50;;;;;;;3.47;1.30;;;25.40;65.80;;;;;;4934856;29;20556;-70
2022/06/12 12:08:42;;;;;;;1.80;1.03;;;25.40;66.70;;;;;;4908765;29;20473;-71
2022/06/12 12:11:13;;;;;;;1.87;1.60;;;25.30;67.70;;;;;;4939447;28;20493;-70
2022/06/12 12:13:43;;;;;;;1.47;1.37;;;25.40;66.40;;;;;;4930755;29;20564;-71
2022/06/12 12:16:21;;;;;;;0.97;0.90;;;25.60;65.80;;;;;;4932490;29;20497;-71
2022/06/12 12:18:54;;;;;;;1.43;1.07;;;25.80;64.40;;;;;;4928604;29;20473;-71
2022/06/12 12:21:30;;;;;;;1.83;1.43;;;25.60;64.70;;;;;;4931001;29;20576;-71
2022/06/12 12:24:01;;;;;;;3.33;1.20;;;25.70;65.40;;;;;;4939285;29;20493;-71
2022/06/12 12:26:33;;;;;;;1.13;1.10;;;26.00;66.00;;;;;;4941648;29;21040;-71
2022/06/12 12:29:02;;;;;;;1.50;1.40;;;26.30;64.70;;;;;;4945383;28;20481;-71
2022/06/12 12:31:30;;;;;;;1.90;1.53;;;26.30;64.30;;;;;;4930064;29;20504;-71
2022/06/12 12:34:00;;;;;;;2.10;1.20;;;26.40;63.30;;;;;;4930987;29;20578;-71
2022/06/12 12:42:31;;;;;;;1.80;1.30;;;26.40;61.60;;;;;;4894488;29;20608;-71
2022/06/12 12:45:13;;;;;;;1.50;1.00;;;26.30;61.30;;;;;;4917525;29;20464;-71
2022/06/12 12:47:40;;;;;;;1.77;1.20;;;26.20;62.30;;;;;;4934795;29;20472;-71
2022/06/12 12:50:10;;;;;;;1.37;1.20;;;26.10;62.00;;;;;;4950952;28;20473;-71
2022/06/12 12:52:46;;;;;;;0.90;0.90;;;26.30;61.30;;;;;;4950948;28;20516;-71
2022/06/12 12:55:30;;;;;;;0.90;0.90;;;26.30;60.40;;;;;;4950520;28;20464;-71
2022/06/12 12:57:59;;;;;;;2.20;0.93;;;26.30;61.10;;;;;;4950759;28;21047;-71
2022/06/12 13:00:33;;;;;;;1.53;1.40;;;26.20;62.60;;;;;;4951028;28;20482;-71
2022/06/12 13:03:03;;;;;;;2.40;1.20;;;26.00;60.60;;;;;;4947522;28;20472;-71
2022/06/12 13:05:42;;;;;;;1.40;1.23;;;25.90;60.80;;;;;;4949900;29;20465;-71
2022/06/12 13:08:23;;;;;;;1.30;1.20;;;25.90;62.20;;;;;;4951228;28;20468;-70
2022/06/12 13:11:04;;;;;;;1.10;1.07;;;26.00;63.40;;;;;;4950471;28;20989;-70
2022/06/12 13:13:45;;;;;;;1.60;1.50;;;26.10;61.40;;;;;;4951052;28;20530;-70
2022/06/12 13:16:18;;;;;;;1.80;1.00;;;26.20;60.90;;;;;;4951500;28;20472;-70
2022/06/12 13:19:05;;;;;;;2.13;1.17;;;26.30;60.90;;;;;;4937353;28;21210;-69
2022/06/12 13:21:40;;;;;;;1.00;0.90;;;26.40;60.10;;;;;;4932073;28;20485;-70
2022/06/12 13:24:40;;;;;;;1.60;1.00;;;26.60;59.40;;;;;;4928889;29;20469;-70
2022/06/12 13:27:19;;;;;;;2.23;2.03;;;26.60;58.20;;;;;;4934527;29;20460;-70
2022/06/12 13:29:47;;;;;;;1.43;1.40;;;26.40;59.00;;;;;;4941088;28;20941;-69
2022/06/12 13:32:22;;;;;;;1.20;1.07;;;26.20;59.40;;;;;;4939893;28;20901;-70
2022/06/12 13:34:58;;;;;;;1.27;1.17;;;26.10;59.10;;;;;;4934810;28;20472;-69
2022/06/12 13:37:28;;;;;;;1.20;1.10;;;26.10;58.90;;;;;;4937494;29;20515;-71
2022/06/12 13:39:55;;;;;;;2.20;1.13;;;26.00;60.60;;;;;;4929811;29;20473;-70
2022/06/12 13:42:27;;;;;;;2.60;0.90;;;26.30;59.80;;;;;;4938937;29;20488;-70
2022/06/12 13:44:56;;;;;;;4.33;2.33;;;26.40;60.70;;;;;;4945150;28;20941;-70
2022/06/12 13:47:30;;;;;;;1.90;1.23;;;26.60;60.30;;;;;;4931067;29;20470;-70
2022/06/12 13:50:04;;;;;;;1.30;1.20;;;26.50;59.90;;;;;;4934425;28;20473;-70
2022/06/12 13:52:39;;;;;;;1.43;1.03;;;26.40;62.00;;;;;;4931767;29;20492;-69
2022/06/12 13:55:22;;;;;;;2.20;1.10;;;26.30;61.70;;;;;;4936100;28;20473;-69
2022/06/12 13:57:52;;;;;;;1.90;1.20;;;26.50;62.00;;;;;;4924353;29;20505;-69
2022/06/12 14:00:27;;;;;;;0.87;0.80;;;26.70;61.70;;;;;;4930322;29;20879;-69
2022/06/12 14:02:54;;;;;;;1.00;0.87;;;26.70;62.00;;;;;;4948262;28;20476;-69
2022/06/12 14:05:24;;;;;;;1.70;1.47;;;27.00;61.10;;;;;;4934045;28;20465;-69
2022/06/12 14:07:53;;;;;;;1.07;0.97;;;26.90;59.60;;;;;;4939756;28;20480;-70
2022/06/12 14:10:27;;;;;;;2.67;1.43;;;26.80;59.90;;;;;;4935191;29;20465;-70
2022/06/12 14:12:55;;;;;;;1.30;1.30;;;26.80;60.60;;;;;;4933100;29;20600;-69
2022/06/12 14:15:27;;;;;;;2.10;1.07;;;26.70;62.30;;;;;;4944204;29;20961;-69
2022/06/12 14:17:56;;;;;;;2.20;1.07;;;26.80;61.40;;;;;;4945399;28;20468;-70
2022/06/12 14:20:25;;;;;;;1.07;0.97;;;26.90;62.40;;;;;;4945746;28;20464;-70
2022/06/12 14:22:56;;;;;;;1.10;1.00;;;26.90;61.50;;;;;;4937220;28;20502;-70
2022/06/12 14:25:26;;;;;;;1.43;1.10;;;26.80;60.60;;;;;;4935005;29;20473;-70
2022/06/12 14:28:06;;;;;;;1.87;1.63;;;26.50;60.90;;;;;;4932532;28;20478;-70
2022/06/12 14:30:43;;;;;;;1.27;1.27;;;26.10;61.50;;;;;;4934597;29;20468;-70
2022/06/12 14:33:31;;;;;;;2.13;1.23;;;26.00;62.70;;;;;;4942330;29;20834;-70
2022/06/12 14:35:58;;;;;;;1.80;1.00;;;25.80;63.40;;;;;;4932031;29;20477;-70
2022/06/12 14:38:27;;;;;;;1.77;1.37;;;25.70;63.70;;;;;;4934028;29;20558;-70
2022/06/12 14:40:55;;;;;;;1.60;1.50;;;25.60;63.10;;;;;;4936684;28;20493;-70
2022/06/12 14:43:27;;;;;;;3.10;1.37;;;25.40;64.00;;;;;;4952708;28;20547;-70
2022/06/12 14:45:56;;;;;;;2.87;1.27;;;25.40;64.40;;;;;;4943814;28;20473;-70
2022/06/12 14:48:25;;;;;;;2.00;1.90;;;25.40;65.10;;;;;;4941004;29;20473;-70
2022/06/12 14:50:54;;;;;;;1.67;0.97;;;25.30;65.50;;;;;;4941454;28;20481;-70
2022/06/12 14:53:20;;;;;;;1.43;1.30;;;25.10;65.50;;;;;;4930150;29;20576;-70
2022/06/12 14:55:48;;;;;;;2.43;1.40;;;25.10;66.10;;;;;;4937695;29;20461;-70
2022/06/12 14:58:25;;;;;;;1.60;1.50;;;25.10;66.30;;;;;;4942225;28;20473;-69
2022/06/12 15:00:52;;;;;;;1.73;1.50;;;25.10;66.40;;;;;;4928702;29;20500;-69
2022/06/12 15:03:19;;;;;;;1.60;1.50;;;25.30;66.70;;;;;;4932873;29;20502;-69
2022/06/12 15:05:46;;;;;;;2.30;1.40;;;25.60;66.60;;;;;;4944196;28;20920;-69
2022/06/12 15:08:12;;;;;;;3.67;1.67;;;25.60;67.10;;;;;;4937132;28;20478;-69
2022/06/12 15:10:41;;;;;;;1.90;1.50;;;25.80;67.10;;;;;;4941603;29;20879;-69
2022/06/12 15:13:12;;;;;;;3.70;1.30;;;26.00;66.70;;;;;;4932914;29;20548;-69
2022/06/12 15:15:40;;;;;;;2.07;1.87;;;26.40;66.90;;;;;;4944772;29;20934;-69
2022/06/12 15:18:07;;;;;;;1.80;1.70;;;26.70;65.00;;;;;;4940639;28;20478;-69
2022/06/12 15:20:34;;;;;;;4.10;1.70;;;26.80;65.00;;;;;;4943379;29;20465;-69
2022/06/12 15:23:00;;;;;;;2.20;1.40;;;27.00;65.50;;;;;;4939493;28;20528;-69
2022/06/12 15:31:07;;;;;;;2.50;1.60;;;26.90;63.90;;;;;;4932916;29;20601;-69
2022/06/12 15:33:34;;;;;;;1.33;1.33;;;26.60;64.10;;;;;;4933739;29;20469;-70
2022/06/12 15:36:00;;;;;;;3.37;1.30;;;26.30;63.50;;;;;;4943327;28;20470;-70
2022/06/12 15:38:27;;;;;;;3.13;1.73;;;26.00;63.20;;;;;;4938150;29;20470;-70
2022/06/12 15:40:54;;;;;;;4.63;2.07;;;25.50;75.10;;;;;;4940069;28;20845;-69
2022/06/12 15:43:22;;;;;;;3.10;1.87;;;24.50;81.80;;;;;;4941111;29;20478;-70
2022/06/12 15:45:49;;;;;;;3.73;2.03;;;23.80;84.90;;;;;;4917113;29;20611;-68
2022/06/12 15:48:17;;;;;;;2.10;2.00;;;23.40;87.50;;;;;;4943655;29;20474;-68
2022/06/12 15:50:45;;;;;;;3.47;2.43;;;22.90;89.90;;;;;;4915131;29;20601;-69
2022/06/12 15:53:13;;;;;;;4.50;1.80;;;22.60;91.00;;;;;;4940356;29;20541;-69
2022/06/12 15:55:40;;;;;;;3.03;1.63;;;22.50;91.30;;;;;;4934835;29;20515;-69
2022/06/12 15:58:07;;;;;;;3.43;2.20;;;22.50;91.20;;;;;;4932115;29;20864;-70
2022/06/12 16:00:34;;;;;;;2.50;1.87;;;22.50;91.90;;;;;;4935988;29;20474;-70
2022/06/12 16:03:01;;;;;;;5.20;2.50;;;22.50;92.50;;;;;;4938766;29;20594;-70
2022/06/12 16:05:30;;;;;;;6.73;2.00;;;22.50;93.20;;;;;;4940486;28;20500;-71
2022/06/12 16:07:56;;;;;;;2.83;2.17;;;22.40;94.00;;;;;;4946397;29;20976;-70
2022/06/12 16:10:23;;;;;;;4.13;2.50;;;22.30;94.80;;;;;;4931611;28;20564;-70
2022/06/12 16:12:51;;;;;;;1.87;1.73;;;22.40;95.40;;;;;;4937924;29;20535;-70
2022/06/12 16:15:21;;;;;;;2.40;2.27;;;22.40;95.80;;;;;;4935603;28;20469;-70
2022/06/12 16:17:48;;;;;;;4.00;2.47;;;22.40;96.40;;;;;;4927074;29;20536;-70
2022/06/12 16:20:17;;;;;;;2.90;2.67;;;22.20;97.50;;;;;;4948693;29;20556;-70
2022/06/12 16:22:45;;;;;;;7.50;2.47;;;22.20;97.70;;;;;;4942961;28;20915;-70
2022/06/12 16:25:13;;;;;;;3.80;3.50;;;22.20;98.00;;;;;;4939444;29;20512;-72
2022/06/12 16:27:41;;;;;;;6.30;5.10;;;22.00;98.50;;;;;;4939610;29;20492;-71
2022/06/12 16:30:11;;;;;;;4.20;2.83;;;21.90;99.30;;;;;;4937328;28;20472;-70
2022/06/12 16:32:37;;;;;;;5.47;4.67;;;21.80;99.70;;;;;;4934084;29;20633;-69
2022/06/12 16:35:06;;;;;;;5.10;2.67;;;21.80;99.90;;;;;;4943032;28;20472;-70
2022/06/12 16:37:35;;;;;;;2.33;2.23;;;21.70;98.20;;;;;;4942353;29;20485;-70
2022/06/12 16:40:03;;;;;;;2.27;2.10;;;21.70;97.50;;;;;;4943592;28;20462;-70
2022/06/12 16:42:30;;;;;;;5.43;2.30;;;21.70;97.20;;;;;;4930538;29;20584;-70
2022/06/12 16:44:57;;;;;;;2.60;2.50;;;21.70;97.20;;;;;;4939478;29;20497;-70
2022/06/12 16:47:24;;;;;;;2.63;2.43;;;21.80;97.30;;;;;;4939168;29;20470;-70
2022/06/12 16:49:51;;;;;;;4.57;2.40;;;21.80;97.80;;;;;;4948231;28;20469;-69
2022/06/12 16:52:17;;;;;;;3.63;2.27;;;21.80;98.00;;;;;;4929358;29;20497;-70
2022/06/12 16:54:47;;;;;;;3.13;2.10;;;21.90;98.10;;;;;;4931575;29;21077;-69
2022/06/12 16:57:17;;;;;;;2.20;2.07;;;21.80;98.10;;;;;;4932273;29;20477;-69
2022/06/12 16:59:46;;;;;;;2.90;2.10;;;21.70;98.40;;;;;;4937563;29;20892;-69
2022/06/12 17:02:14;;;;;;;3.80;2.53;;;21.60;98.60;;;;;;4939735;29;20492;-69
2022/06/12 17:04:42;;;;;;;6.30;3.00;;;21.60;98.50;;;;;;4932278;29;20473;-69
2022/06/12 17:07:11;;;;;;;5.20;2.23;;;21.50;98.30;;;;;;4933538;29;20474;-69
2022/06/12 17:09:38;;;;;;;3.03;2.30;;;21.40;97.80;;;;;;4938860;29;20492;-69
2022/06/12 17:12:06;;;;;;;2.43;2.23;;;21.40;97.50;;;;;;4940401;29;20485;-69
2022/06/12 17:14:34;;;;;;;2.53;2.03;;;21.30;96.70;;;;;;4935068;29;20505;-69
2022/06/12 17:17:01;;;;;;;2.10;1.90;;;21.30;96.20;;;;;;4938741;29;20460;-70
2022/06/12 17:22:12;;;;;;;2.93;2.20;;;21.10;95.40;;;;;;4935366;29;20564;-70
2022/06/12 17:24:39;;;;;;;3.40;2.60;;;21.00;95.80;;;;;;4931174;28;20457;-70
2022/06/12 17:27:08;;;;;;;4.67;2.03;;;21.00;95.80;;;;;;4939839;29;20508;-69